sensor_id;sensor_type;location;lat;lon;timestamp;P1;durP1;ratioP1;P2;durP2;ratioP2
8654;SDS011;13500;52.514;13.462;2024-01-07T00:01:16;4.40;;;2.63;;
8654;SDS011;13500;52.514;13.462;2024-01-07T00:03:44;4.90;;;2.30;;
8654;SDS011;13500;52.514;13.462;2024-01-07T00:06:14;5.87;;;2.80;;
8654;SDS011;13500;52.514;13.462;2024-01-07T00:08:43;5.43;;;2.67;;
8654;SDS011;13500;52.514;13.462;2024-01-07T00:11:11;3.57;;;2.17;;
8654;SDS011;13500;52.514;13.462;2024-01-07T00:13:42;4.90;;;2.70;;
8654;SDS011;13500;52.514;13.462;2024-01-07T00:16:10;7.47;;;2.77;;
8654;SDS011;13500;52.514;13.462;2024-01-07T00:18:39;4.07;;;2.57;;
8654;SDS011;13500;52.514;13.462;2024-01-07T00:21:08;5.70;;;3.03;;
8654;SDS011;13500;52.514;13.462;2024-01-07T00:23:37;4.47;;;2.93;;
8654;SDS011;13500;52.514;13.462;2024-01-07T00:26:06;6.53;;;3.33;;
8654;SDS011;13500;52.514;13.462;2024-01-07T00:28:35;5.27;;;3.47;;
8654;SDS011;13500;52.514;13.462;2024-01-07T00:31:07;5.20;;;3.13;;
8654;SDS011;13500;52.514;13.462;2024-01-07T00:33:37;5.93;;;3.33;;
8654;SDS011;13500;52.514;13.462;2024-01-07T00:36:07;5.47;;;3.23;;
8654;SDS011;13500;52.514;13.462;2024-01-07T00:38:36;4.93;;;3.30;;
8654;SDS011;13500;52.514;13.462;2024-01-07T00:41:04;6.63;;;3.00;;
8654;SDS011;13500;52.514;13.462;2024-01-07T00:43:33;3.97;;;2.90;;
8654;SDS011;13500;52.514;13.462;2024-01-07T00:46:01;5.43;;;3.00;;
8654;SDS011;13500;52.514;13.462;2024-01-07T00:48:31;2.97;;;2.50;;
8654;SDS011;13500;52.514;13.462;2024-01-07T00:51:00;3.47;;;2.40;;
8654;SDS011;13500;52.514;13.462;2024-01-07T00:53:31;4.37;;;2.80;;
8654;SDS011;13500;52.514;13.462;2024-01-07T00:56:01;5.70;;;2.63;;
8654;SDS011;13500;52.514;13.462;2024-01-07T00:58:33;3.20;;;2.00;;
8654;SDS011;13500;52.514;13.462;2024-01-07T01:01:02;4.10;;;2.57;;
8654;SDS011;13500;52.514;13.462;2024-01-07T01:03:32;4.17;;;2.43;;
8654;SDS011;13500;52.514;13.462;2024-01-07T01:06:01;4.60;;;2.00;;
8654;SDS011;13500;52.514;13.462;2024-01-07T01:08:30;2.97;;;1.57;;
8654;SDS011;13500;52.514;13.462;2024-01-07T01:10:58;5.00;;;2.13;;
8654;SDS011;13500;52.514;13.462;2024-01-07T01:13:26;4.67;;;2.47;;
8654;SDS011;13500;52.514;13.462;2024-01-07T01:15:54;2.80;;;1.67;;
8654;SDS011;13500;52.514;13.462;2024-01-07T01:18:24;5.07;;;1.97;;
8654;SDS011;13500;52.514;13.462;2024-01-07T01:20:57;2.57;;;1.73;;
8654;SDS011;13500;52.514;13.462;2024-01-07T01:23:25;5.70;;;1.73;;
8654;SDS011;13500;52.514;13.462;2024-01-07T01:25:53;3.60;;;1.93;;
8654;SDS011;13500;52.514;13.462;2024-01-07T01:28:23;1.63;;;1.17;;
8654;SDS011;13500;52.514;13.462;2024-01-07T01:30:51;4.17;;;1.73;;
8654;SDS011;13500;52.514;13.462;2024-01-07T01:33:22;2.10;;;1.83;;
8654;SDS011;13500;52.514;13.462;2024-01-07T01:35:51;2.13;;;1.63;;
8654;SDS011;13500;52.514;13.462;2024-01-07T01:38:20;4.47;;;2.23;;
8654;SDS011;13500;52.514;13.462;2024-01-07T01:40:51;4.63;;;1.83;;
8654;SDS011;13500;52.514;13.462;2024-01-07T01:43:25;2.27;;;1.60;;
8654;SDS011;13500;52.514;13.462;2024-01-07T01:45:55;3.87;;;2.03;;
8654;SDS011;13500;52.514;13.462;2024-01-07T01:48:24;2.83;;;1.80;;
8654;SDS011;13500;52.514;13.462;2024-01-07T01:50:53;3.93;;;1.90;;
8654;SDS011;13500;52.514;13.462;2024-01-07T01:53:27;3.83;;;2.17;;
8654;SDS011;13500;52.514;13.462;2024-01-07T01:55:56;2.57;;;1.90;;
8654;SDS011;13500;52.514;13.462;2024-01-07T01:58:25;4.30;;;2.20;;
8654;SDS011;13500;52.514;13.462;2024-01-07T02:00:57;5.57;;;2.17;;
8654;SDS011;13500;52.514;13.462;2024-01-07T02:03:25;2.40;;;1.73;;
8654;SDS011;13500;52.514;13.462;2024-01-07T02:05:56;3.63;;;2.33;;
8654;SDS011;13500;52.514;13.462;2024-01-07T02:08:25;2.10;;;1.47;;
8654;SDS011;13500;52.514;13.462;2024-01-07T02:10:54;3.23;;;2.07;;
8654;SDS011;13500;52.514;13.462;2024-01-07T02:13:23;4.93;;;2.17;;
8654;SDS011;13500;52.514;13.462;2024-01-07T02:15:52;4.07;;;2.33;;
8654;SDS011;13500;52.514;13.462;2024-01-07T02:18:23;4.23;;;2.50;;
8654;SDS011;13500;52.514;13.462;2024-01-07T02:20:52;5.33;;;2.20;;
8654;SDS011;13500;52.514;13.462;2024-01-07T02:23:20;3.40;;;2.03;;
8654;SDS011;13500;52.514;13.462;2024-01-07T02:25:52;5.20;;;2.30;;
8654;SDS011;13500;52.514;13.462;2024-01-07T02:28:23;2.70;;;1.53;;
8654;SDS011;13500;52.514;13.462;2024-01-07T02:30:52;3.30;;;2.10;;
8654;SDS011;13500;52.514;13.462;2024-01-07T02:33:21;2.30;;;1.63;;
8654;SDS011;13500;52.514;13.462;2024-01-07T02:35:49;2.23;;;1.90;;
8654;SDS011;13500;52.514;13.462;2024-01-07T02:38:18;3.40;;;2.27;;
8654;SDS011;13500;52.514;13.462;2024-01-07T02:40:48;2.47;;;1.90;;
8654;SDS011;13500;52.514;13.462;2024-01-07T02:43:20;3.27;;;1.97;;
8654;SDS011;13500;52.514;13.462;2024-01-07T02:45:48;2.40;;;1.97;;
8654;SDS011;13500;52.514;13.462;2024-01-07T02:48:18;2.20;;;1.10;;
8654;SDS011;13500;52.514;13.462;2024-01-07T02:50:46;2.57;;;1.87;;
8654;SDS011;13500;52.514;13.462;2024-01-07T02:53:15;2.53;;;1.90;;
8654;SDS011;13500;52.514;13.462;2024-01-07T02:55:45;2.90;;;1.67;;
8654;SDS011;13500;52.514;13.462;2024-01-07T02:58:13;2.53;;;2.00;;
8654;SDS011;13500;52.514;13.462;2024-01-07T03:00:56;2.97;;;1.90;;
8654;SDS011;13500;52.514;13.462;2024-01-07T03:03:24;2.50;;;1.60;;
8654;SDS011;13500;52.514;13.462;2024-01-07T03:05:53;2.37;;;1.90;;
8654;SDS011;13500;52.514;13.462;2024-01-07T03:08:21;3.03;;;1.90;;
8654;SDS011;13500;52.514;13.462;2024-01-07T03:10:51;1.90;;;1.63;;
8654;SDS011;13500;52.514;13.462;2024-01-07T03:13:19;2.87;;;1.90;;
8654;SDS011;13500;52.514;13.462;2024-01-07T03:15:49;2.63;;;1.67;;
8654;SDS011;13500;52.514;13.462;2024-01-07T03:18:17;3.07;;;2.00;;
8654;SDS011;13500;52.514;13.462;2024-01-07T03:20:45;3.13;;;1.67;;
8654;SDS011;13500;52.514;13.462;2024-01-07T03:23:15;3.17;;;1.80;;
8654;SDS011;13500;52.514;13.462;2024-01-07T03:25:45;2.03;;;1.50;;
8654;SDS011;13500;52.514;13.462;2024-01-07T03:28:13;2.87;;;2.00;;
8654;SDS011;13500;52.514;13.462;2024-01-07T03:30:42;3.47;;;2.10;;
8654;SDS011;13500;52.514;13.462;2024-01-07T03:33:12;3.00;;;1.90;;
8654;SDS011;13500;52.514;13.462;2024-01-07T03:35:40;3.70;;;1.93;;
8654;SDS011;13500;52.514;13.462;2024-01-07T03:38:09;3.13;;;2.07;;
8654;SDS011;13500;52.514;13.462;2024-01-07T03:40:37;4.90;;;2.17;;
8654;SDS011;13500;52.514;13.462;2024-01-07T03:43:05;3.10;;;1.67;;
8654;SDS011;13500;52.514;13.462;2024-01-07T03:45:34;4.53;;;2.07;;
8654;SDS011;13500;52.514;13.462;2024-01-07T03:48:03;3.97;;;2.00;;
8654;SDS011;13500;52.514;13.462;2024-01-07T03:50:36;2.77;;;1.90;;
8654;SDS011;13500;52.514;13.462;2024-01-07T03:53:05;3.13;;;2.20;;
8654;SDS011;13500;52.514;13.462;2024-01-07T03:55:33;3.30;;;2.07;;
8654;SDS011;13500;52.514;13.462;2024-01-07T03:58:01;2.40;;;1.90;;
8654;SDS011;13500;52.514;13.462;2024-01-07T04:00:29;2.83;;;1.80;;
8654;SDS011;13500;52.514;13.462;2024-01-07T04:02:58;2.27;;;1.83;;
8654;SDS011;13500;52.514;13.462;2024-01-07T04:05:29;1.80;;;1.40;;
8654;SDS011;13500;52.514;13.462;2024-01-07T04:08:00;3.57;;;2.13;;
8654;SDS011;13500;52.514;13.462;2024-01-07T04:10:30;2.70;;;1.57;;
8654;SDS011;13500;52.514;13.462;2024-01-07T04:12:59;18.77;;;10.77;;
8654;SDS011;13500;52.514;13.462;2024-01-07T04:15:28;3.43;;;2.30;;
8654;SDS011;13500;52.514;13.462;2024-01-07T04:17:57;2.97;;;1.93;;
8654;SDS011;13500;52.514;13.462;2024-01-07T04:20:29;2.67;;;1.87;;
8654;SDS011;13500;52.514;13.462;2024-01-07T04:22:58;3.10;;;2.17;;
8654;SDS011;13500;52.514;13.462;2024-01-07T04:25:28;2.00;;;1.63;;
8654;SDS011;13500;52.514;13.462;2024-01-07T04:28:01;2.07;;;1.70;;
8654;SDS011;13500;52.514;13.462;2024-01-07T04:30:29;2.57;;;1.73;;
8654;SDS011;13500;52.514;13.462;2024-01-07T04:32:58;2.60;;;2.00;;
8654;SDS011;13500;52.514;13.462;2024-01-07T04:35:30;2.83;;;2.00;;
8654;SDS011;13500;52.514;13.462;2024-01-07T04:37:58;2.80;;;1.90;;
8654;SDS011;13500;52.514;13.462;2024-01-07T04:40:30;5.20;;;2.20;;
8654;SDS011;13500;52.514;13.462;2024-01-07T04:42:58;3.10;;;1.73;;
8654;SDS011;13500;52.514;13.462;2024-01-07T04:45:28;3.30;;;1.80;;
8654;SDS011;13500;52.514;13.462;2024-01-07T04:47:57;4.57;;;2.07;;
8654;SDS011;13500;52.514;13.462;2024-01-07T04:50:26;4.10;;;1.80;;
8654;SDS011;13500;52.514;13.462;2024-01-07T04:52:54;3.23;;;1.90;;
8654;SDS011;13500;52.514;13.462;2024-01-07T04:55:24;2.73;;;1.90;;
8654;SDS011;13500;52.514;13.462;2024-01-07T04:57:56;2.33;;;1.70;;
8654;SDS011;13500;52.514;13.462;2024-01-07T05:00:26;2.13;;;1.83;;
8654;SDS011;13500;52.514;13.462;2024-01-07T05:02:55;3.57;;;2.13;;
8654;SDS011;13500;52.514;13.462;2024-01-07T05:05:24;2.40;;;1.80;;
8654;SDS011;13500;52.514;13.462;2024-01-07T05:07:52;3.33;;;1.90;;
8654;SDS011;13500;52.514;13.462;2024-01-07T05:10:20;3.60;;;1.73;;
8654;SDS011;13500;52.514;13.462;2024-01-07T05:12:48;1.60;;;1.27;;
8654;SDS011;13500;52.514;13.462;2024-01-07T05:15:18;3.40;;;2.07;;
8654;SDS011;13500;52.514;13.462;2024-01-07T05:17:47;2.23;;;1.63;;
8654;SDS011;13500;52.514;13.462;2024-01-07T05:20:16;2.77;;;1.80;;
8654;SDS011;13500;52.514;13.462;2024-01-07T05:22:45;3.00;;;2.20;;
8654;SDS011;13500;52.514;13.462;2024-01-07T05:25:13;3.10;;;2.03;;
8654;SDS011;13500;52.514;13.462;2024-01-07T05:27:44;2.13;;;1.53;;
8654;SDS011;13500;52.514;13.462;2024-01-07T05:30:13;3.27;;;2.00;;
8654;SDS011;13500;52.514;13.462;2024-01-07T05:32:46;2.00;;;1.67;;
8654;SDS011;13500;52.514;13.462;2024-01-07T05:35:15;4.73;;;2.17;;
8654;SDS011;13500;52.514;13.462;2024-01-07T05:37:48;2.63;;;1.77;;
8654;SDS011;13500;52.514;13.462;2024-01-07T05:40:17;4.63;;;2.27;;
8654;SDS011;13500;52.514;13.462;2024-01-07T05:42:47;2.60;;;1.53;;
8654;SDS011;13500;52.514;13.462;2024-01-07T05:45:16;2.70;;;1.93;;
8654;SDS011;13500;52.514;13.462;2024-01-07T05:47:48;3.87;;;2.50;;
8654;SDS011;13500;52.514;13.462;2024-01-07T05:50:19;3.90;;;2.20;;
8654;SDS011;13500;52.514;13.462;2024-01-07T05:52:48;2.90;;;2.00;;
8654;SDS011;13500;52.514;13.462;2024-01-07T05:55:16;4.77;;;2.10;;
8654;SDS011;13500;52.514;13.462;2024-01-07T05:57:46;3.00;;;2.13;;
8654;SDS011;13500;52.514;13.462;2024-01-07T06:00:14;5.63;;;2.40;;
8654;SDS011;13500;52.514;13.462;2024-01-07T06:02:45;3.37;;;2.17;;
8654;SDS011;13500;52.514;13.462;2024-01-07T06:05:16;6.30;;;2.60;;
8654;SDS011;13500;52.514;13.462;2024-01-07T06:07:46;4.80;;;2.70;;
8654;SDS011;13500;52.514;13.462;2024-01-07T06:10:16;4.53;;;2.33;;
8654;SDS011;13500;52.514;13.462;2024-01-07T06:12:45;3.90;;;2.43;;
8654;SDS011;13500;52.514;13.462;2024-01-07T06:15:13;3.47;;;2.50;;
8654;SDS011;13500;52.514;13.462;2024-01-07T06:17:42;3.63;;;2.40;;
8654;SDS011;13500;52.514;13.462;2024-01-07T06:20:23;5.70;;;2.27;;
8654;SDS011;13500;52.514;13.462;2024-01-07T06:22:52;2.90;;;2.07;;
8654;SDS011;13500;52.514;13.462;2024-01-07T06:25:20;4.40;;;2.70;;
8654;SDS011;13500;52.514;13.462;2024-01-07T06:27:50;4.17;;;2.70;;
8654;SDS011;13500;52.514;13.462;2024-01-07T06:30:18;3.97;;;2.60;;
8654;SDS011;13500;52.514;13.462;2024-01-07T06:32:47;4.70;;;2.33;;
8654;SDS011;13500;52.514;13.462;2024-01-07T06:35:16;3.30;;;2.33;;
8654;SDS011;13500;52.514;13.462;2024-01-07T06:37:46;4.17;;;2.50;;
8654;SDS011;13500;52.514;13.462;2024-01-07T06:40:15;4.10;;;2.67;;
8654;SDS011;13500;52.514;13.462;2024-01-07T06:42:43;6.77;;;2.83;;
8654;SDS011;13500;52.514;13.462;2024-01-07T06:45:16;3.83;;;2.53;;
8654;SDS011;13500;52.514;13.462;2024-01-07T06:47:44;4.83;;;2.70;;
8654;SDS011;13500;52.514;13.462;2024-01-07T06:50:14;4.17;;;2.50;;
8654;SDS011;13500;52.514;13.462;2024-01-07T06:52:43;5.13;;;2.97;;
8654;SDS011;13500;52.514;13.462;2024-01-07T06:55:14;5.90;;;2.70;;
8654;SDS011;13500;52.514;13.462;2024-01-07T06:57:43;3.47;;;2.57;;
8654;SDS011;13500;52.514;13.462;2024-01-07T07:00:12;6.87;;;2.40;;
8654;SDS011;13500;52.514;13.462;2024-01-07T07:02:42;4.07;;;2.40;;
8654;SDS011;13500;52.514;13.462;2024-01-07T07:05:10;4.97;;;2.60;;
8654;SDS011;13500;52.514;13.462;2024-01-07T07:07:39;4.07;;;2.37;;
8654;SDS011;13500;52.514;13.462;2024-01-07T07:10:09;4.00;;;2.40;;
8654;SDS011;13500;52.514;13.462;2024-01-07T07:12:41;3.40;;;2.33;;
8654;SDS011;13500;52.514;13.462;2024-01-07T07:15:10;3.93;;;2.63;;
8654;SDS011;13500;52.514;13.462;2024-01-07T07:17:39;4.87;;;2.30;;
8654;SDS011;13500;52.514;13.462;2024-01-07T07:20:11;3.17;;;2.33;;
8654;SDS011;13500;52.514;13.462;2024-01-07T07:22:40;4.97;;;2.30;;
8654;SDS011;13500;52.514;13.462;2024-01-07T07:25:09;3.23;;;2.40;;
8654;SDS011;13500;52.514;13.462;2024-01-07T07:27:47;4.17;;;2.50;;
8654;SDS011;13500;52.514;13.462;2024-01-07T07:30:20;3.50;;;2.27;;
8654;SDS011;13500;52.514;13.462;2024-01-07T07:32:48;3.60;;;2.13;;
8654;SDS011;13500;52.514;13.462;2024-01-07T07:35:18;3.20;;;2.30;;
8654;SDS011;13500;52.514;13.462;2024-01-07T07:37:50;2.77;;;1.93;;
8654;SDS011;13500;52.514;13.462;2024-01-07T07:40:22;4.33;;;2.60;;
8654;SDS011;13500;52.514;13.462;2024-01-07T07:42:54;3.97;;;2.40;;
8654;SDS011;13500;52.514;13.462;2024-01-07T07:45:23;4.13;;;2.50;;
8654;SDS011;13500;52.514;13.462;2024-01-07T07:47:54;3.53;;;2.63;;
8654;SDS011;13500;52.514;13.462;2024-01-07T07:50:22;3.00;;;2.20;;
8654;SDS011;13500;52.514;13.462;2024-01-07T07:52:52;4.90;;;2.23;;
8654;SDS011;13500;52.514;13.462;2024-01-07T07:55:22;3.90;;;2.50;;
8654;SDS011;13500;52.514;13.462;2024-01-07T07:57:50;3.13;;;2.27;;
8654;SDS011;13500;52.514;13.462;2024-01-07T08:00:22;3.97;;;2.47;;
8654;SDS011;13500;52.514;13.462;2024-01-07T08:02:52;5.17;;;2.60;;
8654;SDS011;13500;52.514;13.462;2024-01-07T08:05:22;3.87;;;2.60;;
8654;SDS011;13500;52.514;13.462;2024-01-07T08:07:53;4.60;;;2.23;;
8654;SDS011;13500;52.514;13.462;2024-01-07T08:10:23;4.30;;;2.57;;
8654;SDS011;13500;52.514;13.462;2024-01-07T08:12:53;3.23;;;2.40;;
8654;SDS011;13500;52.514;13.462;2024-01-07T08:15:24;4.37;;;2.90;;
8654;SDS011;13500;52.514;13.462;2024-01-07T08:17:53;3.17;;;2.60;;
8654;SDS011;13500;52.514;13.462;2024-01-07T08:20:22;3.13;;;2.30;;
8654;SDS011;13500;52.514;13.462;2024-01-07T08:22:52;3.10;;;2.33;;
8654;SDS011;13500;52.514;13.462;2024-01-07T08:25:23;3.73;;;2.20;;
8654;SDS011;13500;52.514;13.462;2024-01-07T08:27:52;3.03;;;2.10;;
8654;SDS011;13500;52.514;13.462;2024-01-07T08:30:25;5.37;;;2.70;;
8654;SDS011;13500;52.514;13.462;2024-01-07T08:32:56;3.10;;;2.13;;
8654;SDS011;13500;52.514;13.462;2024-01-07T08:35:28;3.27;;;2.50;;
8654;SDS011;13500;52.514;13.462;2024-01-07T08:38:00;4.33;;;2.33;;
8654;SDS011;13500;52.514;13.462;2024-01-07T08:40:29;2.63;;;2.20;;
8654;SDS011;13500;52.514;13.462;2024-01-07T08:42:58;3.40;;;2.30;;
8654;SDS011;13500;52.514;13.462;2024-01-07T08:45:31;5.60;;;2.40;;
8654;SDS011;13500;52.514;13.462;2024-01-07T08:48:00;2.70;;;2.13;;
8654;SDS011;13500;52.514;13.462;2024-01-07T08:50:30;4.23;;;2.30;;
8654;SDS011;13500;52.514;13.462;2024-01-07T08:52:58;3.80;;;2.40;;
8654;SDS011;13500;52.514;13.462;2024-01-07T08:55:31;3.53;;;2.43;;
8654;SDS011;13500;52.514;13.462;2024-01-07T08:58:00;3.97;;;2.57;;
8654;SDS011;13500;52.514;13.462;2024-01-07T09:00:30;6.43;;;3.03;;
8654;SDS011;13500;52.514;13.462;2024-01-07T09:02:59;2.97;;;2.57;;
8654;SDS011;13500;52.514;13.462;2024-01-07T09:05:27;3.67;;;2.70;;
8654;SDS011;13500;52.514;13.462;2024-01-07T09:07:55;4.57;;;2.87;;
8654;SDS011;13500;52.514;13.462;2024-01-07T09:10:24;5.00;;;2.83;;
8654;SDS011;13500;52.514;13.462;2024-01-07T09:12:54;4.03;;;3.00;;
8654;SDS011;13500;52.514;13.462;2024-01-07T09:15:23;4.93;;;3.00;;
8654;SDS011;13500;52.514;13.462;2024-01-07T09:17:54;3.70;;;2.83;;
8654;SDS011;13500;52.514;13.462;2024-01-07T09:20:22;4.77;;;3.13;;
8654;SDS011;13500;52.514;13.462;2024-01-07T09:22:53;5.50;;;2.93;;
8654;SDS011;13500;52.514;13.462;2024-01-07T09:25:22;4.30;;;3.10;;
8654;SDS011;13500;52.514;13.462;2024-01-07T09:27:53;5.40;;;3.27;;
8654;SDS011;13500;52.514;13.462;2024-01-07T09:30:21;7.50;;;3.63;;
8654;SDS011;13500;52.514;13.462;2024-01-07T09:32:51;5.37;;;3.07;;
8654;SDS011;13500;52.514;13.462;2024-01-07T09:35:22;4.00;;;3.30;;
8654;SDS011;13500;52.514;13.462;2024-01-07T09:37:50;4.90;;;3.27;;
8654;SDS011;13500;52.514;13.462;2024-01-07T09:40:18;5.50;;;3.67;;
8654;SDS011;13500;52.514;13.462;2024-01-07T09:42:47;6.73;;;3.63;;
8654;SDS011;13500;52.514;13.462;2024-01-07T09:45:15;7.67;;;3.90;;
8654;SDS011;13500;52.514;13.462;2024-01-07T09:47:45;5.17;;;3.60;;
8654;SDS011;13500;52.514;13.462;2024-01-07T09:50:17;7.77;;;4.03;;
8654;SDS011;13500;52.514;13.462;2024-01-07T09:52:47;5.57;;;3.97;;
8654;SDS011;13500;52.514;13.462;2024-01-07T09:55:19;6.20;;;3.93;;
8654;SDS011;13500;52.514;13.462;2024-01-07T09:57:57;6.23;;;3.77;;
8654;SDS011;13500;52.514;13.462;2024-01-07T10:00:28;6.77;;;4.00;;
8654;SDS011;13500;52.514;13.462;2024-01-07T10:02:57;6.17;;;4.07;;
8654;SDS011;13500;52.514;13.462;2024-01-07T10:05:27;6.50;;;4.27;;
8654;SDS011;13500;52.514;13.462;2024-01-07T10:07:57;5.50;;;3.90;;
8654;SDS011;13500;52.514;13.462;2024-01-07T10:10:25;6.33;;;4.33;;
8654;SDS011;13500;52.514;13.462;2024-01-07T10:12:56;8.20;;;4.07;;
8654;SDS011;13500;52.514;13.462;2024-01-07T10:15:26;5.37;;;4.30;;
8654;SDS011;13500;52.514;13.462;2024-01-07T10:17:55;9.20;;;4.50;;
8654;SDS011;13500;52.514;13.462;2024-01-07T10:20:26;8.87;;;5.80;;
8654;SDS011;13500;52.514;13.462;2024-01-07T10:22:57;7.63;;;4.47;;
8654;SDS011;13500;52.514;13.462;2024-01-07T10:25:25;6.77;;;4.50;;
8654;SDS011;13500;52.514;13.462;2024-01-07T10:27:54;6.70;;;4.37;;
8654;SDS011;13500;52.514;13.462;2024-01-07T10:30:27;8.23;;;4.40;;
8654;SDS011;13500;52.514;13.462;2024-01-07T10:32:57;13.50;;;8.73;;
8654;SDS011;13500;52.514;13.462;2024-01-07T10:35:33;7.33;;;5.00;;
8654;SDS011;13500;52.514;13.462;2024-01-07T10:38:04;6.70;;;4.90;;
8654;SDS011;13500;52.514;13.462;2024-01-07T10:40:35;10.03;;;4.90;;
8654;SDS011;13500;52.514;13.462;2024-01-07T10:43:05;8.97;;;4.97;;
8654;SDS011;13500;52.514;13.462;2024-01-07T10:45:34;8.30;;;4.67;;
8654;SDS011;13500;52.514;13.462;2024-01-07T10:48:03;7.07;;;4.43;;
8654;SDS011;13500;52.514;13.462;2024-01-07T10:50:34;6.17;;;4.50;;
8654;SDS011;13500;52.514;13.462;2024-01-07T10:53:06;8.77;;;4.93;;
8654;SDS011;13500;52.514;13.462;2024-01-07T10:55:38;8.40;;;4.80;;
8654;SDS011;13500;52.514;13.462;2024-01-07T10:58:08;7.73;;;5.20;;
8654;SDS011;13500;52.514;13.462;2024-01-07T11:00:36;7.63;;;4.30;;
8654;SDS011;13500;52.514;13.462;2024-01-07T11:03:09;8.07;;;5.03;;
8654;SDS011;13500;52.514;13.462;2024-01-07T11:05:43;6.83;;;4.40;;
8654;SDS011;13500;52.514;13.462;2024-01-07T11:08:21;8.53;;;5.03;;
8654;SDS011;13500;52.514;13.462;2024-01-07T11:10:55;8.97;;;4.77;;
8654;SDS011;13500;52.514;13.462;2024-01-07T11:13:33;8.53;;;4.90;;
8654;SDS011;13500;52.514;13.462;2024-01-07T11:16:06;8.37;;;5.10;;
8654;SDS011;13500;52.514;13.462;2024-01-07T11:18:50;6.63;;;4.57;;
8654;SDS011;13500;52.514;13.462;2024-01-07T11:21:24;8.97;;;5.13;;
8654;SDS011;13500;52.514;13.462;2024-01-07T11:23:55;6.50;;;4.90;;
8654;SDS011;13500;52.514;13.462;2024-01-07T11:26:25;8.37;;;4.83;;
8654;SDS011;13500;52.514;13.462;2024-01-07T11:28:57;7.87;;;5.33;;
8654;SDS011;13500;52.514;13.462;2024-01-07T11:37:07;7.60;;;4.77;;
8654;SDS011;13500;52.514;13.462;2024-01-07T11:39:43;7.27;;;4.73;;
8654;SDS011;13500;52.514;13.462;2024-01-07T11:42:14;6.93;;;4.63;;
8654;SDS011;13500;52.514;13.462;2024-01-07T11:44:47;7.43;;;4.87;;
8654;SDS011;13500;52.514;13.462;2024-01-07T11:47:18;6.60;;;4.57;;
8654;SDS011;13500;52.514;13.462;2024-01-07T11:49:52;10.07;;;4.73;;
8654;SDS011;13500;52.514;13.462;2024-01-07T11:52:21;9.17;;;4.90;;
8654;SDS011;13500;52.514;13.462;2024-01-07T11:54:52;7.50;;;4.37;;
8654;SDS011;13500;52.514;13.462;2024-01-07T11:57:23;5.53;;;4.40;;
8654;SDS011;13500;52.514;13.462;2024-01-07T11:59:55;6.30;;;4.27;;
8654;SDS011;13500;52.514;13.462;2024-01-07T12:02:25;8.13;;;4.43;;
8654;SDS011;13500;52.514;13.462;2024-01-07T12:04:58;7.17;;;4.80;;
8654;SDS011;13500;52.514;13.462;2024-01-07T12:07:29;6.93;;;4.73;;
8654;SDS011;13500;52.514;13.462;2024-01-07T12:10:03;6.43;;;4.33;;
8654;SDS011;13500;52.514;13.462;2024-01-07T12:12:31;8.77;;;4.50;;
8654;SDS011;13500;52.514;13.462;2024-01-07T12:15:00;6.13;;;4.10;;
8654;SDS011;13500;52.514;13.462;2024-01-07T12:17:33;6.00;;;4.30;;
8654;SDS011;13500;52.514;13.462;2024-01-07T12:20:04;5.57;;;4.30;;
8654;SDS011;13500;52.514;13.462;2024-01-07T12:22:37;5.43;;;4.07;;
8654;SDS011;13500;52.514;13.462;2024-01-07T12:25:07;6.60;;;4.40;;
8654;SDS011;13500;52.514;13.462;2024-01-07T12:27:37;5.77;;;4.30;;
8654;SDS011;13500;52.514;13.462;2024-01-07T12:30:06;5.73;;;3.70;;
8654;SDS011;13500;52.514;13.462;2024-01-07T12:32:37;5.43;;;4.10;;
8654;SDS011;13500;52.514;13.462;2024-01-07T12:35:06;12.77;;;7.17;;
8654;SDS011;13500;52.514;13.462;2024-01-07T12:37:38;6.47;;;4.97;;
8654;SDS011;13500;52.514;13.462;2024-01-07T12:40:09;6.67;;;4.23;;
8654;SDS011;13500;52.514;13.462;2024-01-07T12:42:40;6.27;;;4.43;;
8654;SDS011;13500;52.514;13.462;2024-01-07T12:45:13;8.30;;;4.73;;
8654;SDS011;13500;52.514;13.462;2024-01-07T12:47:43;6.57;;;4.23;;
8654;SDS011;13500;52.514;13.462;2024-01-07T12:50:12;5.80;;;4.37;;
8654;SDS011;13500;52.514;13.462;2024-01-07T12:52:42;7.10;;;4.50;;
8654;SDS011;13500;52.514;13.462;2024-01-07T12:55:12;7.63;;;4.33;;
8654;SDS011;13500;52.514;13.462;2024-01-07T12:57:42;6.07;;;4.30;;
8654;SDS011;13500;52.514;13.462;2024-01-07T13:00:11;5.13;;;3.97;;
8654;SDS011;13500;52.514;13.462;2024-01-07T13:02:41;8.10;;;4.37;;
8654;SDS011;13500;52.514;13.462;2024-01-07T13:05:10;7.10;;;4.10;;
8654;SDS011;13500;52.514;13.462;2024-01-07T13:07:39;5.97;;;4.47;;
8654;SDS011;13500;52.514;13.462;2024-01-07T13:10:08;8.23;;;4.87;;
8654;SDS011;13500;52.514;13.462;2024-01-07T13:12:39;6.40;;;4.53;;
8654;SDS011;13500;52.514;13.462;2024-01-07T13:15:16;8.77;;;4.80;;
8654;SDS011;13500;52.514;13.462;2024-01-07T13:17:44;7.30;;;4.63;;
8654;SDS011;13500;52.514;13.462;2024-01-07T13:20:13;6.07;;;4.50;;
8654;SDS011;13500;52.514;13.462;2024-01-07T13:22:41;7.90;;;5.00;;
8654;SDS011;13500;52.514;13.462;2024-01-07T13:25:09;6.73;;;5.23;;
8654;SDS011;13500;52.514;13.462;2024-01-07T13:27:44;6.77;;;4.63;;
8654;SDS011;13500;52.514;13.462;2024-01-07T13:30:13;6.30;;;4.77;;
8654;SDS011;13500;52.514;13.462;2024-01-07T13:32:43;7.80;;;4.73;;
8654;SDS011;13500;52.514;13.462;2024-01-07T13:35:13;5.60;;;4.17;;
8654;SDS011;13500;52.514;13.462;2024-01-07T13:37:44;8.47;;;5.03;;
8654;SDS011;13500;52.514;13.462;2024-01-07T13:40:17;7.83;;;4.80;;
8654;SDS011;13500;52.514;13.462;2024-01-07T13:42:51;6.33;;;4.57;;
8654;SDS011;13500;52.514;13.462;2024-01-07T13:45:21;7.37;;;4.27;;
8654;SDS011;13500;52.514;13.462;2024-01-07T13:47:50;6.93;;;4.83;;
8654;SDS011;13500;52.514;13.462;2024-01-07T13:50:21;6.53;;;4.30;;
8654;SDS011;13500;52.514;13.462;2024-01-07T13:52:50;6.30;;;4.50;;
8654;SDS011;13500;52.514;13.462;2024-01-07T13:55:21;5.37;;;4.10;;
8654;SDS011;13500;52.514;13.462;2024-01-07T13:57:57;6.70;;;4.60;;
8654;SDS011;13500;52.514;13.462;2024-01-07T14:00:26;5.73;;;4.23;;
8654;SDS011;13500;52.514;13.462;2024-01-07T14:02:56;6.13;;;4.40;;
8654;SDS011;13500;52.514;13.462;2024-01-07T14:05:25;6.63;;;4.30;;
8654;SDS011;13500;52.514;13.462;2024-01-07T14:07:55;5.63;;;4.00;;
8654;SDS011;13500;52.514;13.462;2024-01-07T14:10:26;6.27;;;4.30;;
8654;SDS011;13500;52.514;13.462;2024-01-07T14:12:58;7.67;;;4.27;;
8654;SDS011;13500;52.514;13.462;2024-01-07T14:15:27;6.17;;;4.77;;
8654;SDS011;13500;52.514;13.462;2024-01-07T14:18:00;5.97;;;4.20;;
8654;SDS011;13500;52.514;13.462;2024-01-07T14:20:29;6.20;;;4.07;;
8654;SDS011;13500;52.514;13.462;2024-01-07T14:22:57;4.67;;;3.70;;
8654;SDS011;13500;52.514;13.462;2024-01-07T14:25:26;7.07;;;4.30;;
8654;SDS011;13500;52.514;13.462;2024-01-07T14:27:55;4.50;;;3.33;;
8654;SDS011;13500;52.514;13.462;2024-01-07T14:30:25;4.20;;;3.00;;
8654;SDS011;13500;52.514;13.462;2024-01-07T14:32:56;4.10;;;3.20;;
8654;SDS011;13500;52.514;13.462;2024-01-07T14:35:25;7.93;;;3.40;;
8654;SDS011;13500;52.514;13.462;2024-01-07T14:37:58;4.47;;;3.03;;
8654;SDS011;13500;52.514;13.462;2024-01-07T14:40:33;4.70;;;3.50;;
8654;SDS011;13500;52.514;13.462;2024-01-07T14:43:03;3.60;;;2.93;;
8654;SDS011;13500;52.514;13.462;2024-01-07T14:45:37;4.60;;;3.20;;
8654;SDS011;13500;52.514;13.462;2024-01-07T14:48:05;5.97;;;3.00;;
8654;SDS011;13500;52.514;13.462;2024-01-07T14:50:35;5.50;;;2.90;;
8654;SDS011;13500;52.514;13.462;2024-01-07T14:53:08;4.50;;;3.00;;
8654;SDS011;13500;52.514;13.462;2024-01-07T14:55:38;3.60;;;2.90;;
8654;SDS011;13500;52.514;13.462;2024-01-07T14:58:08;5.53;;;2.80;;
8654;SDS011;13500;52.514;13.462;2024-01-07T15:00:43;3.57;;;2.77;;
8654;SDS011;13500;52.514;13.462;2024-01-07T15:03:12;8.10;;;4.73;;
8654;SDS011;13500;52.514;13.462;2024-01-07T15:05:44;4.33;;;2.50;;
8654;SDS011;13500;52.514;13.462;2024-01-07T15:08:14;5.23;;;2.90;;
8654;SDS011;13500;52.514;13.462;2024-01-07T15:10:44;4.47;;;3.23;;